sensor_id;sensor_type;location;lat;lon;timestamp;P1;durP1;ratioP1;P2;durP2;ratioP2
11247;SDS011;5681;53.316;13.950;2023-02-15T00:01:57;31.20;;;21.23;;
11247;SDS011;5681;53.316;13.950;2023-02-15T00:04:24;32.00;;;21.53;;
11247;SDS011;5681;53.316;13.950;2023-02-15T00:07:12;36.90;;;22.63;;
11247;SDS011;5681;53.316;13.950;2023-02-15T00:09:39;37.67;;;23.73;;
11247;SDS011;5681;53.316;13.950;2023-02-15T00:12:05;39.87;;;24.73;;
11247;SDS011;5681;53.316;13.950;2023-02-15T00:14:32;35.73;;;23.23;;
11247;SDS011;5681;53.316;13.950;2023-02-15T00:16:58;42.03;;;24.37;;
11247;SDS011;5681;53.316;13.950;2023-02-15T00:19:25;43.07;;;25.57;;
11247;SDS011;5681;53.316;13.950;2023-02-15T00:21:52;36.63;;;22.40;;
11247;SDS011;5681;53.316;13.950;2023-02-15T00:24:19;41.50;;;25.67;;
11247;SDS011;5681;53.316;13.950;2023-02-15T00:26:46;39.77;;;24.80;;
11247;SDS011;5681;53.316;13.950;2023-02-15T00:29:13;46.27;;;25.43;;
11247;SDS011;5681;53.316;13.950;2023-02-15T00:31:40;41.00;;;23.50;;
11247;SDS011;5681;53.316;13.950;2023-02-15T00:34:07;45.53;;;27.10;;
11247;SDS011;5681;53.316;13.950;2023-02-15T00:36:37;43.63;;;26.30;;
11247;SDS011;5681;53.316;13.950;2023-02-15T00:39:03;37.53;;;24.30;;
11247;SDS011;5681;53.316;13.950;2023-02-15T00:41:31;42.60;;;25.17;;
11247;SDS011;5681;53.316;13.950;2023-02-15T00:43:58;41.97;;;25.03;;
11247;SDS011;5681;53.316;13.950;2023-02-15T00:46:24;47.63;;;27.40;;
11247;SDS011;5681;53.316;13.950;2023-02-15T00:48:51;47.47;;;28.20;;
11247;SDS011;5681;53.316;13.950;2023-02-15T00:51:17;51.30;;;29.30;;
11247;SDS011;5681;53.316;13.950;2023-02-15T00:53:45;46.87;;;27.10;;
11247;SDS011;5681;53.316;13.950;2023-02-15T00:56:11;50.77;;;29.00;;
11247;SDS011;5681;53.316;13.950;2023-02-15T00:58:39;49.90;;;29.27;;
11247;SDS011;5681;53.316;13.950;2023-02-15T01:01:07;50.83;;;30.30;;
11247;SDS011;5681;53.316;13.950;2023-02-15T01:03:34;49.87;;;28.90;;
11247;SDS011;5681;53.316;13.950;2023-02-15T01:06:01;45.63;;;28.23;;
11247;SDS011;5681;53.316;13.950;2023-02-15T01:08:28;48.30;;;29.27;;
11247;SDS011;5681;53.316;13.950;2023-02-15T01:10:55;56.77;;;31.80;;
11247;SDS011;5681;53.316;13.950;2023-02-15T01:13:21;52.97;;;28.97;;
11247;SDS011;5681;53.316;13.950;2023-02-15T01:15:53;54.93;;;30.07;;
11247;SDS011;5681;53.316;13.950;2023-02-15T01:18:20;52.97;;;29.87;;
11247;SDS011;5681;53.316;13.950;2023-02-15T01:20:47;54.63;;;30.57;;
11247;SDS011;5681;53.316;13.950;2023-02-15T01:23:13;50.63;;;30.63;;
11247;SDS011;5681;53.316;13.950;2023-02-15T01:25:40;54.97;;;30.43;;
11247;SDS011;5681;53.316;13.950;2023-02-15T01:28:06;52.40;;;30.07;;
11247;SDS011;5681;53.316;13.950;2023-02-15T01:30:33;51.13;;;29.60;;
11247;SDS011;5681;53.316;13.950;2023-02-15T01:33:00;55.53;;;30.97;;
11247;SDS011;5681;53.316;13.950;2023-02-15T01:35:27;56.73;;;32.10;;
11247;SDS011;5681;53.316;13.950;2023-02-15T01:37:54;56.53;;;30.50;;
11247;SDS011;5681;53.316;13.950;2023-02-15T01:40:20;53.27;;;29.47;;
11247;SDS011;5681;53.316;13.950;2023-02-15T01:42:49;45.00;;;27.77;;
11247;SDS011;5681;53.316;13.950;2023-02-15T01:45:18;49.77;;;30.13;;
11247;SDS011;5681;53.316;13.950;2023-02-15T01:47:48;56.33;;;32.03;;
11247;SDS011;5681;53.316;13.950;2023-02-15T01:50:20;50.43;;;29.10;;
11247;SDS011;5681;53.316;13.950;2023-02-15T01:52:49;52.57;;;30.93;;
11247;SDS011;5681;53.316;13.950;2023-02-15T01:55:17;56.07;;;30.30;;
11247;SDS011;5681;53.316;13.950;2023-02-15T01:57:44;52.70;;;31.30;;
11247;SDS011;5681;53.316;13.950;2023-02-15T02:00:12;54.27;;;31.70;;
11247;SDS011;5681;53.316;13.950;2023-02-15T02:02:40;47.60;;;29.07;;
11247;SDS011;5681;53.316;13.950;2023-02-15T02:05:06;45.57;;;28.77;;
11247;SDS011;5681;53.316;13.950;2023-02-15T02:07:35;51.83;;;29.83;;
11247;SDS011;5681;53.316;13.950;2023-02-15T02:10:04;49.80;;;30.23;;
11247;SDS011;5681;53.316;13.950;2023-02-15T02:12:31;50.67;;;29.37;;
11247;SDS011;5681;53.316;13.950;2023-02-15T02:14:58;45.80;;;28.07;;
11247;SDS011;5681;53.316;13.950;2023-02-15T02:17:26;53.07;;;31.03;;
11247;SDS011;5681;53.316;13.950;2023-02-15T02:20:08;58.30;;;33.23;;
11247;SDS011;5681;53.316;13.950;2023-02-15T02:23:02;59.60;;;34.93;;
11247;SDS011;5681;53.316;13.950;2023-02-15T02:25:50;53.00;;;31.23;;
11247;SDS011;5681;53.316;13.950;2023-02-15T02:31:42;55.27;;;32.33;;
11247;SDS011;5681;53.316;13.950;2023-02-15T02:34:12;53.93;;;30.47;;
11247;SDS011;5681;53.316;13.950;2023-02-15T02:36:41;58.00;;;32.63;;
11247;SDS011;5681;53.316;13.950;2023-02-15T02:39:13;56.67;;;33.23;;
11247;SDS011;5681;53.316;13.950;2023-02-15T02:41:50;55.10;;;32.83;;
11247;SDS011;5681;53.316;13.950;2023-02-15T02:44:22;54.20;;;32.63;;
11247;SDS011;5681;53.316;13.950;2023-02-15T02:46:52;58.03;;;34.10;;
11247;SDS011;5681;53.316;13.950;2023-02-15T02:49:31;57.47;;;32.83;;
11247;SDS011;5681;53.316;13.950;2023-02-15T02:52:00;49.00;;;29.47;;
11247;SDS011;5681;53.316;13.950;2023-02-15T02:54:27;47.73;;;30.20;;
11247;SDS011;5681;53.316;13.950;2023-02-15T02:56:54;52.13;;;31.43;;
11247;SDS011;5681;53.316;13.950;2023-02-15T02:59:23;48.60;;;30.30;;
11247;SDS011;5681;53.316;13.950;2023-02-15T03:01:53;54.67;;;32.17;;
11247;SDS011;5681;53.316;13.950;2023-02-15T03:04:22;52.40;;;31.40;;
11247;SDS011;5681;53.316;13.950;2023-02-15T03:06:52;54.57;;;30.80;;
11247;SDS011;5681;53.316;13.950;2023-02-15T03:09:21;53.63;;;31.17;;
11247;SDS011;5681;53.316;13.950;2023-02-15T03:11:50;45.47;;;29.17;;
11247;SDS011;5681;53.316;13.950;2023-02-15T03:14:17;52.83;;;30.97;;
11247;SDS011;5681;53.316;13.950;2023-02-15T03:16:45;49.60;;;30.50;;
11247;SDS011;5681;53.316;13.950;2023-02-15T03:19:14;48.93;;;31.53;;
11247;SDS011;5681;53.316;13.950;2023-02-15T03:21:43;53.20;;;31.13;;
11247;SDS011;5681;53.316;13.950;2023-02-15T03:24:16;56.40;;;31.00;;
11247;SDS011;5681;53.316;13.950;2023-02-15T03:26:45;51.83;;;31.07;;
11247;SDS011;5681;53.316;13.950;2023-02-15T03:29:13;49.70;;;29.83;;
11247;SDS011;5681;53.316;13.950;2023-02-15T03:31:42;52.03;;;32.67;;
11247;SDS011;5681;53.316;13.950;2023-02-15T03:34:11;57.43;;;32.37;;
11247;SDS011;5681;53.316;13.950;2023-02-15T03:36:41;50.47;;;32.00;;
11247;SDS011;5681;53.316;13.950;2023-02-15T03:39:11;52.13;;;31.20;;
11247;SDS011;5681;53.316;13.950;2023-02-15T03:41:42;59.97;;;36.63;;
11247;SDS011;5681;53.316;13.950;2023-02-15T03:44:13;50.57;;;31.70;;
11247;SDS011;5681;53.316;13.950;2023-02-15T03:46:43;55.97;;;33.50;;
11247;SDS011;5681;53.316;13.950;2023-02-15T03:49:12;54.13;;;32.13;;
11247;SDS011;5681;53.316;13.950;2023-02-15T03:51:42;58.47;;;34.07;;
11247;SDS011;5681;53.316;13.950;2023-02-15T03:54:12;57.40;;;33.50;;
11247;SDS011;5681;53.316;13.950;2023-02-15T03:57:02;66.53;;;37.50;;
11247;SDS011;5681;53.316;13.950;2023-02-15T03:59:46;80.00;;;43.53;;
11247;SDS011;5681;53.316;13.950;2023-02-15T04:02:31;87.17;;;44.57;;
11247;SDS011;5681;53.316;13.950;2023-02-15T04:05:02;76.47;;;43.40;;
11247;SDS011;5681;53.316;13.950;2023-02-15T04:07:29;70.97;;;40.37;;
11247;SDS011;5681;53.316;13.950;2023-02-15T04:09:55;73.23;;;41.20;;
11247;SDS011;5681;53.316;13.950;2023-02-15T04:12:40;75.47;;;41.87;;
11247;SDS011;5681;53.316;13.950;2023-02-15T04:15:07;67.87;;;39.67;;
11247;SDS011;5681;53.316;13.950;2023-02-15T04:17:52;63.43;;;38.30;;
11247;SDS011;5681;53.316;13.950;2023-02-15T04:20:21;56.53;;;35.00;;
11247;SDS011;5681;53.316;13.950;2023-02-15T04:23:05;57.10;;;34.20;;
11247;SDS011;5681;53.316;13.950;2023-02-15T04:25:49;56.57;;;34.00;;
11247;SDS011;5681;53.316;13.950;2023-02-15T04:28:17;59.77;;;34.30;;
11247;SDS011;5681;53.316;13.950;2023-02-15T04:30:43;58.97;;;34.00;;
11247;SDS011;5681;53.316;13.950;2023-02-15T04:33:10;57.17;;;33.43;;
11247;SDS011;5681;53.316;13.950;2023-02-15T04:35:36;51.10;;;33.10;;
11247;SDS011;5681;53.316;13.950;2023-02-15T04:38:02;55.53;;;34.77;;
11247;SDS011;5681;53.316;13.950;2023-02-15T04:40:29;61.77;;;37.10;;
11247;SDS011;5681;53.316;13.950;2023-02-15T04:42:55;55.50;;;34.60;;
11247;SDS011;5681;53.316;13.950;2023-02-15T04:45:23;56.63;;;35.30;;
11247;SDS011;5681;53.316;13.950;2023-02-15T04:47:49;62.80;;;36.50;;
11247;SDS011;5681;53.316;13.950;2023-02-15T04:50:15;60.93;;;35.40;;
11247;SDS011;5681;53.316;13.950;2023-02-15T04:52:42;58.43;;;37.17;;
11247;SDS011;5681;53.316;13.950;2023-02-15T04:55:08;59.70;;;36.67;;
11247;SDS011;5681;53.316;13.950;2023-02-15T04:57:35;64.13;;;37.37;;
11247;SDS011;5681;53.316;13.950;2023-02-15T05:00:01;59.50;;;35.83;;
11247;SDS011;5681;53.316;13.950;2023-02-15T05:02:29;61.80;;;36.67;;
11247;SDS011;5681;53.316;13.950;2023-02-15T05:04:55;65.57;;;39.03;;
11247;SDS011;5681;53.316;13.950;2023-02-15T05:07:21;67.53;;;39.50;;
11247;SDS011;5681;53.316;13.950;2023-02-15T05:09:48;61.97;;;37.70;;
11247;SDS011;5681;53.316;13.950;2023-02-15T05:12:14;62.83;;;41.20;;
11247;SDS011;5681;53.316;13.950;2023-02-15T05:14:41;68.63;;;40.07;;
11247;SDS011;5681;53.316;13.950;2023-02-15T05:17:07;59.47;;;38.63;;
11247;SDS011;5681;53.316;13.950;2023-02-15T05:19:35;66.23;;;40.87;;
11247;SDS011;5681;53.316;13.950;2023-02-15T05:22:01;66.37;;;41.70;;
11247;SDS011;5681;53.316;13.950;2023-02-15T05:24:27;65.40;;;39.93;;
11247;SDS011;5681;53.316;13.950;2023-02-15T05:27:11;68.87;;;40.80;;
11247;SDS011;5681;53.316;13.950;2023-02-15T05:29:55;72.17;;;40.60;;
11247;SDS011;5681;53.316;13.950;2023-02-15T05:32:22;65.80;;;41.17;;
11247;SDS011;5681;53.316;13.950;2023-02-15T05:34:49;70.67;;;42.50;;
11247;SDS011;5681;53.316;13.950;2023-02-15T05:37:16;68.57;;;42.27;;
11247;SDS011;5681;53.316;13.950;2023-02-15T05:39:42;69.87;;;40.70;;
11247;SDS011;5681;53.316;13.950;2023-02-15T05:42:08;63.73;;;38.87;;
11247;SDS011;5681;53.316;13.950;2023-02-15T05:44:35;69.77;;;40.03;;
11247;SDS011;5681;53.316;13.950;2023-02-15T05:47:01;59.93;;;37.77;;
11247;SDS011;5681;53.316;13.950;2023-02-15T05:49:28;67.23;;;41.13;;
11247;SDS011;5681;53.316;13.950;2023-02-15T05:51:56;69.13;;;41.23;;
11247;SDS011;5681;53.316;13.950;2023-02-15T05:54:22;71.80;;;41.17;;
11247;SDS011;5681;53.316;13.950;2023-02-15T05:56:49;75.63;;;42.70;;
11247;SDS011;5681;53.316;13.950;2023-02-15T05:59:15;69.73;;;41.40;;
11247;SDS011;5681;53.316;13.950;2023-02-15T06:01:42;76.33;;;42.60;;
11247;SDS011;5681;53.316;13.950;2023-02-15T06:04:08;69.33;;;42.33;;
11247;SDS011;5681;53.316;13.950;2023-02-15T06:06:34;76.50;;;43.10;;
11247;SDS011;5681;53.316;13.950;2023-02-15T06:09:02;74.33;;;41.47;;
11247;SDS011;5681;53.316;13.950;2023-02-15T06:11:28;73.73;;;43.00;;
11247;SDS011;5681;53.316;13.950;2023-02-15T06:13:55;74.53;;;42.77;;
11247;SDS011;5681;53.316;13.950;2023-02-15T06:16:21;80.33;;;44.23;;
11247;SDS011;5681;53.316;13.950;2023-02-15T06:18:47;75.73;;;43.13;;
11247;SDS011;5681;53.316;13.950;2023-02-15T06:21:14;75.60;;;43.17;;
11247;SDS011;5681;53.316;13.950;2023-02-15T06:23:40;69.73;;;42.57;;
11247;SDS011;5681;53.316;13.950;2023-02-15T06:26:08;73.23;;;42.73;;
11247;SDS011;5681;53.316;13.950;2023-02-15T06:28:34;76.67;;;44.17;;
11247;SDS011;5681;53.316;13.950;2023-02-15T06:31:02;76.93;;;42.77;;
11247;SDS011;5681;53.316;13.950;2023-02-15T06:33:28;74.83;;;43.50;;
11247;SDS011;5681;53.316;13.950;2023-02-15T06:35:55;79.90;;;44.17;;
11247;SDS011;5681;53.316;13.950;2023-02-15T06:38:21;76.30;;;44.00;;
11247;SDS011;5681;53.316;13.950;2023-02-15T06:40:48;76.03;;;43.77;;
11247;SDS011;5681;53.316;13.950;2023-02-15T06:43:15;78.27;;;42.73;;
11247;SDS011;5681;53.316;13.950;2023-02-15T06:45:41;79.17;;;43.93;;
11247;SDS011;5681;53.316;13.950;2023-02-15T06:48:08;79.63;;;44.67;;
11247;SDS011;5681;53.316;13.950;2023-02-15T06:50:36;79.77;;;44.60;;
11247;SDS011;5681;53.316;13.950;2023-02-15T06:53:02;75.60;;;43.23;;
11247;SDS011;5681;53.316;13.950;2023-02-15T06:55:29;85.07;;;45.20;;
11247;SDS011;5681;53.316;13.950;2023-02-15T06:57:55;77.27;;;43.87;;
11247;SDS011;5681;53.316;13.950;2023-02-15T07:00:23;78.87;;;42.70;;
11247;SDS011;5681;53.316;13.950;2023-02-15T07:02:52;79.87;;;44.30;;
11247;SDS011;5681;53.316;13.950;2023-02-15T07:05:21;81.57;;;45.63;;
11247;SDS011;5681;53.316;13.950;2023-02-15T07:07:47;87.10;;;47.73;;
11247;SDS011;5681;53.316;13.950;2023-02-15T07:10:13;91.30;;;48.20;;
11247;SDS011;5681;53.316;13.950;2023-02-15T07:12:40;93.07;;;48.80;;
11247;SDS011;5681;53.316;13.950;2023-02-15T07:15:09;93.43;;;49.33;;
11247;SDS011;5681;53.316;13.950;2023-02-15T07:17:38;102.50;;;51.93;;
11247;SDS011;5681;53.316;13.950;2023-02-15T07:20:05;92.43;;;50.23;;
11247;SDS011;5681;53.316;13.950;2023-02-15T07:22:33;101.33;;;50.47;;
11247;SDS011;5681;53.316;13.950;2023-02-15T07:25:01;95.93;;;50.80;;
11247;SDS011;5681;53.316;13.950;2023-02-15T07:27:28;93.30;;;50.07;;
11247;SDS011;5681;53.316;13.950;2023-02-15T07:29:54;96.20;;;50.60;;
11247;SDS011;5681;53.316;13.950;2023-02-15T07:32:21;98.10;;;49.40;;
11247;SDS011;5681;53.316;13.950;2023-02-15T07:34:51;91.37;;;52.00;;
11247;SDS011;5681;53.316;13.950;2023-02-15T07:37:20;102.47;;;51.93;;
11247;SDS011;5681;53.316;13.950;2023-02-15T07:39:47;96.97;;;51.67;;
11247;SDS011;5681;53.316;13.950;2023-02-15T07:42:13;90.77;;;49.90;;
11247;SDS011;5681;53.316;13.950;2023-02-15T07:44:39;91.20;;;51.63;;
11247;SDS011;5681;53.316;13.950;2023-02-15T07:47:06;89.93;;;49.17;;
11247;SDS011;5681;53.316;13.950;2023-02-15T07:49:32;84.83;;;47.73;;
11247;SDS011;5681;53.316;13.950;2023-02-15T07:52:01;86.13;;;46.10;;
11247;SDS011;5681;53.316;13.950;2023-02-15T07:54:27;86.03;;;46.63;;
11247;SDS011;5681;53.316;13.950;2023-02-15T07:56:54;91.10;;;48.57;;
11247;SDS011;5681;53.316;13.950;2023-02-15T07:59:20;88.33;;;48.40;;
11247;SDS011;5681;53.316;13.950;2023-02-15T08:01:46;86.87;;;49.57;;
11247;SDS011;5681;53.316;13.950;2023-02-15T08:04:13;80.87;;;46.60;;
11247;SDS011;5681;53.316;13.950;2023-02-15T08:06:39;84.43;;;46.23;;
11247;SDS011;5681;53.316;13.950;2023-02-15T08:09:07;77.63;;;46.17;;
11247;SDS011;5681;53.316;13.950;2023-02-15T08:11:36;79.60;;;45.40;;
11247;SDS011;5681;53.316;13.950;2023-02-15T08:14:05;79.83;;;45.20;;
11247;SDS011;5681;53.316;13.950;2023-02-15T08:16:33;73.10;;;44.13;;
11247;SDS011;5681;53.316;13.950;2023-02-15T08:19:01;75.70;;;45.20;;
11247;SDS011;5681;53.316;13.950;2023-02-15T08:21:29;80.47;;;45.70;;
11247;SDS011;5681;53.316;13.950;2023-02-15T08:23:56;75.20;;;43.53;;
11247;SDS011;5681;53.316;13.950;2023-02-15T08:26:25;71.80;;;43.77;;
11247;SDS011;5681;53.316;13.950;2023-02-15T08:28:53;69.13;;;43.23;;
11247;SDS011;5681;53.316;13.950;2023-02-15T08:31:20;69.10;;;43.20;;
11247;SDS011;5681;53.316;13.950;2023-02-15T08:33:47;66.43;;;42.57;;
11247;SDS011;5681;53.316;13.950;2023-02-15T08:36:15;70.67;;;41.20;;
11247;SDS011;5681;53.316;13.950;2023-02-15T08:38:43;67.03;;;41.73;;
11247;SDS011;5681;53.316;13.950;2023-02-15T08:41:10;68.13;;;41.57;;
11247;SDS011;5681;53.316;13.950;2023-02-15T08:43:39;68.93;;;41.90;;
11247;SDS011;5681;53.316;13.950;2023-02-15T08:46:06;67.57;;;42.07;;
11247;SDS011;5681;53.316;13.950;2023-02-15T08:48:32;66.27;;;42.63;;
11247;SDS011;5681;53.316;13.950;2023-02-15T08:50:59;66.30;;;42.17;;
11247;SDS011;5681;53.316;13.950;2023-02-15T08:53:30;65.20;;;41.87;;
11247;SDS011;5681;53.316;13.950;2023-02-15T08:55:57;68.83;;;43.53;;
11247;SDS011;5681;53.316;13.950;2023-02-15T08:58:23;71.33;;;42.97;;
11247;SDS011;5681;53.316;13.950;2023-02-15T09:00:51;66.53;;;43.10;;
11247;SDS011;5681;53.316;13.950;2023-02-15T09:03:18;66.60;;;41.67;;
11247;SDS011;5681;53.316;13.950;2023-02-15T09:05:44;68.80;;;44.20;;
11247;SDS011;5681;53.316;13.950;2023-02-15T09:08:10;65.67;;;43.07;;
11247;SDS011;5681;53.316;13.950;2023-02-15T09:10:37;60.93;;;41.63;;
11247;SDS011;5681;53.316;13.950;2023-02-15T09:13:03;68.03;;;43.60;;
11247;SDS011;5681;53.316;13.950;2023-02-15T09:15:35;68.13;;;42.90;;
11247;SDS011;5681;53.316;13.950;2023-02-15T09:18:03;67.27;;;43.13;;
11247;SDS011;5681;53.316;13.950;2023-02-15T09:20:31;67.17;;;42.43;;
11247;SDS011;5681;53.316;13.950;2023-02-15T09:22:57;71.73;;;45.00;;
11247;SDS011;5681;53.316;13.950;2023-02-15T09:25:24;73.17;;;46.70;;
11247;SDS011;5681;53.316;13.950;2023-02-15T09:27:51;74.17;;;45.10;;
11247;SDS011;5681;53.316;13.950;2023-02-15T09:30:17;78.83;;;46.70;;
11247;SDS011;5681;53.316;13.950;2023-02-15T09:32:44;77.63;;;47.80;;
11247;SDS011;5681;53.316;13.950;2023-02-15T09:35:12;79.23;;;47.83;;
11247;SDS011;5681;53.316;13.950;2023-02-15T09:37:38;78.53;;;47.70;;
11247;SDS011;5681;53.316;13.950;2023-02-15T09:40:05;81.30;;;47.50;;
11247;SDS011;5681;53.316;13.950;2023-02-15T09:42:40;70.60;;;44.73;;
11247;SDS011;5681;53.316;13.950;2023-02-15T09:45:17;69.90;;;44.43;;
11247;SDS011;5681;53.316;13.950;2023-02-15T09:47:56;77.70;;;47.17;;
11247;SDS011;5681;53.316;13.950;2023-02-15T09:50:33;79.37;;;46.37;;
11247;SDS011;5681;53.316;13.950;2023-02-15T09:53:09;75.57;;;46.00;;
11247;SDS011;5681;53.316;13.950;2023-02-15T09:55:47;79.30;;;46.90;;
11247;SDS011;5681;53.316;13.950;2023-02-15T09:58:19;78.67;;;46.10;;
11247;SDS011;5681;53.316;13.950;2023-02-15T10:00:50;81.73;;;46.73;;
11247;SDS011;5681;53.316;13.950;2023-02-15T10:03:27;80.17;;;47.17;;
11247;SDS011;5681;53.316;13.950;2023-02-15T10:06:13;80.50;;;45.07;;
11247;SDS011;5681;53.316;13.950;2023-02-15T10:08:56;84.30;;;46.03;;
11247;SDS011;5681;53.316;13.950;2023-02-15T10:11:45;88.17;;;44.87;;
11247;SDS011;5681;53.316;13.950;2023-02-15T10:14:31;86.67;;;47.23;;
11247;SDS011;5681;53.316;13.950;2023-02-15T10:17:08;90.33;;;47.00;;
11247;SDS011;5681;53.316;13.950;2023-02-15T10:19:43;86.10;;;46.40;;
11247;SDS011;5681;53.316;13.950;2023-02-15T10:22:16;95.03;;;45.27;;
11247;SDS011;5681;53.316;13.950;2023-02-15T10:24:53;87.23;;;46.67;;
11247;SDS011;5681;53.316;13.950;2023-02-15T10:27:27;88.43;;;48.27;;
11247;SDS011;5681;53.316;13.950;2023-02-15T10:29:58;86.67;;;48.57;;
11247;SDS011;5681;53.316;13.950;2023-02-15T10:32:31;87.03;;;47.60;;
11247;SDS011;5681;53.316;13.950;2023-02-15T10:35:01;82.17;;;46.37;;
11247;SDS011;5681;53.316;13.950;2023-02-15T10:37:39;84.70;;;47.97;;
11247;SDS011;5681;53.316;13.950;2023-02-15T10:40:13;89.43;;;48.80;;
11247;SDS011;5681;53.316;13.950;2023-02-15T10:42:49;90.37;;;48.43;;
11247;SDS011;5681;53.316;13.950;2023-02-15T10:45:32;83.57;;;47.13;;
11247;SDS011;5681;53.316;13.950;2023-02-15T10:48:11;86.90;;;47.27;;
11247;SDS011;5681;53.316;13.950;2023-02-15T10:50:46;88.47;;;49.30;;
11247;SDS011;5681;53.316;13.950;2023-02-15T10:53:17;98.87;;;48.37;;
11247;SDS011;5681;53.316;13.950;2023-02-15T10:55:55;86.13;;;47.23;;
11247;SDS011;5681;53.316;13.950;2023-02-15T10:58:29;85.97;;;46.90;;
11247;SDS011;5681;53.316;13.950;2023-02-15T11:01:03;78.40;;;44.87;;
11247;SDS011;5681;53.316;13.950;2023-02-15T11:03:39;79.20;;;42.70;;
11247;SDS011;5681;53.316;13.950;2023-02-15T11:06:14;93.47;;;44.13;;
11247;SDS011;5681;53.316;13.950;2023-02-15T11:08:44;80.43;;;44.43;;
11247;SDS011;5681;53.316;13.950;2023-02-15T11:11:13;71.77;;;41.17;;
11247;SDS011;5681;53.316;13.950;2023-02-15T11:13:43;74.50;;;40.00;;
11247;SDS011;5681;53.316;13.950;2023-02-15T11:16:11;92.67;;;43.57;;
11247;SDS011;5681;53.316;13.950;2023-02-15T11:18:40;87.47;;;44.00;;
11247;SDS011;5681;53.316;13.950;2023-02-15T11:21:09;93.70;;;43.03;;
11247;SDS011;5681;53.316;13.950;2023-02-15T11:23:39;82.97;;;43.07;;
11247;SDS011;5681;53.316;13.950;2023-02-15T11:26:11;89.23;;;43.60;;
11247;SDS011;5681;53.316;13.950;2023-02-15T11:28:39;93.80;;;45.43;;
11247;SDS011;5681;53.316;13.950;2023-02-15T11:31:11;81.47;;;43.73;;
11247;SDS011;5681;53.316;13.950;2023-02-15T11:33:40;80.20;;;44.50;;
11247;SDS011;5681;53.316;13.950;2023-02-15T11:36:09;85.17;;;42.73;;
11247;SDS011;5681;53.316;13.950;2023-02-15T11:38:38;111.63;;;46.73;;
11247;SDS011;5681;53.316;13.950;2023-02-15T11:41:10;83.53;;;44.83;;
11247;SDS011;5681;53.316;13.950;2023-02-15T11:43:38;86.57;;;44.40;;
11247;SDS011;5681;53.316;13.950;2023-02-15T11:46:07;85.17;;;46.93;;
11247;SDS011;5681;53.316;13.950;2023-02-15T11:48:36;90.23;;;46.23;;
11247;SDS011;5681;53.316;13.950;2023-02-15T11:51:02;86.57;;;46.50;;
11247;SDS011;5681;53.316;13.950;2023-02-15T11:53:31;83.30;;;46.77;;
11247;SDS011;5681;53.316;13.950;2023-02-15T11:55:59;79.13;;;44.77;;
11247;SDS011;5681;53.316;13.950;2023-02-15T11:58:30;84.87;;;47.47;;
11247;SDS011;5681;53.316;13.950;2023-02-15T12:01:00;83.53;;;45.87;;
11247;SDS011;5681;53.316;13.950;2023-02-15T12:03:29;83.50;;;44.77;;
11247;SDS011;5681;53.316;13.950;2023-02-15T12:06:05;80.77;;;45.10;;
11247;SDS011;5681;53.316;13.950;2023-02-15T12:08:39;84.40;;;44.37;;
11247;SDS011;5681;53.316;13.950;2023-02-15T12:11:08;78.77;;;45.13;;
11247;SDS011;5681;53.316;13.950;2023-02-15T12:13:45;86.93;;;47.03;;
11247;SDS011;5681;53.316;13.950;2023-02-15T12:16:19;84.30;;;44.93;;
11247;SDS011;5681;53.316;13.950;2023-02-15T12:18:46;82.73;;;45.77;;
11247;SDS011;5681;53.316;13.950;2023-02-15T12:21:14;86.13;;;48.60;;
11247;SDS011;5681;53.316;13.950;2023-02-15T12:23:43;86.57;;;45.27;;
11247;SDS011;5681;53.316;13.950;2023-02-15T12:26:13;88.13;;;45.47;;
11247;SDS011;5681;53.316;13.950;2023-02-15T12:28:40;85.70;;;46.80;;
11247;SDS011;5681;53.316;13.950;2023-02-15T12:31:20;87.17;;;46.53;;
11247;SDS011;5681;53.316;13.950;2023-02-15T12:33:47;85.47;;;45.37;;
11247;SDS011;5681;53.316;13.950;2023-02-15T12:36:17;77.40;;;42.87;;
11247;SDS011;5681;53.316;13.950;2023-02-15T12:41:31;81.90;;;44.80;;
11247;SDS011;5681;53.316;13.950;2023-02-15T12:44:04;77.53;;;44.83;;
11247;SDS011;5681;53.316;13.950;2023-02-15T12:46:34;84.20;;;45.33;;
11247;SDS011;5681;53.316;13.950;2023-02-15T12:49:10;84.20;;;46.13;;
11247;SDS011;5681;53.316;13.950;2023-02-15T12:51:43;78.83;;;44.87;;
11247;SDS011;5681;53.316;13.950;2023-02-15T12:54:20;79.60;;;45.37;;
11247;SDS011;5681;53.316;13.950;2023-02-15T12:56:54;82.10;;;45.37;;
11247;SDS011;5681;53.316;13.950;2023-02-15T12:59:22;80.23;;;45.03;;
11247;SDS011;5681;53.316;13.950;2023-02-15T13:01:50;82.67;;;45.97;;
11247;SDS011;5681;53.316;13.950;2023-02-15T13:04:19;82.93;;;45.80;;
11247;SDS011;5681;53.316;13.950;2023-02-15T13:06:49;86.97;;;46.23;;
11247;SDS011;5681;53.316;13.950;2023-02-15T13:09:17;84.90;;;47.07;;
11247;SDS011;5681;53.316;13.950;2023-02-15T13:11:46;81.80;;;47.00;;
11247;SDS011;5681;53.316;13.950;2023-02-15T13:14:16;83.90;;;47.43;;
11247;SDS011;5681;53.316;13.950;2023-02-15T13:16:44;89.57;;;47.27;;
11247;SDS011;5681;53.316;13.950;2023-02-15T13:19:14;83.07;;;47.57;;
11247;SDS011;5681;53.316;13.950;2023-02-15T13:21:43;85.77;;;46.90;;
11247;SDS011;5681;53.316;13.950;2023-02-15T13:24:15;85.43;;;47.43;;
11247;SDS011;5681;53.316;13.950;2023-02-15T13:26:44;84.90;;;47.00;;
11247;SDS011;5681;53.316;13.950;2023-02-15T13:29:14;87.57;;;48.57;;
11247;SDS011;5681;53.316;13.950;2023-02-15T13:31:43;92.90;;;50.17;;
11247;SDS011;5681;53.316;13.950;2023-02-15T13:34:11;84.13;;;47.10;;
11247;SDS011;5681;53.316;13.950;2023-02-15T13:36:41;89.53;;;48.07;;
11247;SDS011;5681;53.316;13.950;2023-02-15T13:39:14;89.97;;;47.80;;
11247;SDS011;5681;53.316;13.950;2023-02-15T13:41:50;88.63;;;48.43;;
11247;SDS011;5681;53.316;13.950;2023-02-15T13:44:21;91.20;;;48.80;;
11247;SDS011;5681;53.316;13.950;2023-02-15T13:47:10;90.33;;;50.20;;
11247;SDS011;5681;53.316;13.950;2023-02-15T13:49:50;92.23;;;52.63;;
11247;SDS011;5681;53.316;13.950;2023-02-15T13:52:28;95.27;;;53.77;;
11247;SDS011;5681;53.316;13.950;2023-02-15T13:54:58;94.03;;;48.77;;
11247;SDS011;5681;53.316;13.950;2023-02-15T13:57:37;93.40;;;47.73;;
11247;SDS011;5681;53.316;13.950;2023-02-15T14:00:13;93.37;;;46.97;;
11247;SDS011;5681;53.316;13.950;2023-02-15T14:02:57;103.60;;;46.77;;
11247;SDS011;5681;53.316;13.950;2023-02-15T14:05:34;90.63;;;46.83;;
11247;SDS011;5681;53.316;13.950;2023-02-15T14:08:13;92.77;;;45.83;;
11247;SDS011;5681;53.316;13.950;2023-02-15T14:10:47;90.87;;;45.00;;
11247;SDS011;5681;53.316;13.950;2023-02-15T14:13:31;94.80;;;46.23;;
11247;SDS011;5681;53.316;13.950;2023-02-15T14:16:08;90.47;;;44.27;;
11247;SDS011;5681;53.316;13.950;2023-02-15T14:18:39;104.97;;;45.67;;
11247;SDS011;5681;53.316;13.950;2023-02-15T14:21:09;92.30;;;43.87;;
11247;SDS011;5681;53.316;13.950;2023-02-15T14:23:47;92.40;;;44.10;;
11247;SDS011;5681;53.316;13.950;2023-02-15T14:26:20;89.60;;;45.47;;
11247;SDS011;5681;53.316;13.950;2023-02-15T14:28:51;102.17;;;44.50;;
11247;SDS011;5681;53.316;13.950;2023-02-15T14:31:25;97.30;;;44.40;;
11247;SDS011;5681;53.316;13.950;2023-02-15T14:33:56;105.93;;;44.93;;
11247;SDS011;5681;53.316;13.950;2023-02-15T14:36:23;97.00;;;45.00;;
11247;SDS011;5681;53.316;13.950;2023-02-15T14:38:57;103.37;;;42.70;;
11247;SDS011;5681;53.316;13.950;2023-02-15T14:41:28;99.70;;;44.00;;
11247;SDS011;5681;53.316;13.950;2023-02-15T14:43:56;97.50;;;44.63;;